PWSweather.com
Personal Weather Stations
Station Observations
TARRYHILL
Tarrytown, NY 10591

Tarrytown, NY 10591

Lat: 41.05185, Lon: -73.85296

Elevation: 341

Station Type: Davis Vantage Vue

www.tarrytownnyweather.com

High Low Average
Temperature 43.9°F6.6°C 29.1°F-1.6°C 34.9°F1.6°C
Dew Point 21.6°F-5.8°C 13.5°F-10.3°C 18.6°F-7.4°C
Winds 7.2 mph 11.6 kmh Calm Calm 3.0 mph WSW4.8 kmh WSW
Wind Gusts 16.0 mph25.7 kmh -- 7.0 mph11.3 kmh
Humidity 66% 30% 53%
Pressure 30.27 in1025.1 mb 30.00 in1015.9 mb -
Precipitation 0.00 in0.0 mm - -
Hour Temp Dew Point Humidity Winds Wind Gusts Pressure Precip Precip Rate Daily Precip Total
12:00 AM 32.8°F0.4°C 21.6°F-5.8°C 63% 1.3 mph NE2.1 kmh NE 9.0 mph14.5 kmh 30.00 in1015.9 mb 0.00 in0.0 mm 0.00 in/hr0.0 mm/hr 0.00 in0.0 mm
12:10 AM 32.6°F0.3°C 21.4°F-5.9°C 63% 3.2 mph NW5.1 kmh NW 6.0 mph9.7 kmh 30.00 in1015.9 mb 0.00 in0.0 mm 0.00 in/hr0.0 mm/hr 0.00 in0.0 mm
12:20 AM 32.5°F0.3°C 21.3°F-5.9°C 63% 1.5 mph NNW2.4 kmh NNW 2.0 mph3.2 kmh 30.00 in1015.9 mb 0.00 in0.0 mm 0.00 in/hr0.0 mm/hr 0.00 in0.0 mm
12:30 AM 32.4°F0.2°C 21.2°F-6.0°C 63% 2.7 mph NNW4.3 kmh NNW 7.0 mph11.3 kmh 30.00 in1015.9 mb 0.00 in0.0 mm 0.00 in/hr0.0 mm/hr 0.00 in0.0 mm
12:40 AM 32.4°F0.2°C 21.2°F-6.0°C 63% 0.8 mph NW1.3 kmh NW 1.0 mph1.6 kmh 30.00 in1015.9 mb 0.00 in0.0 mm 0.00 in/hr0.0 mm/hr 0.00 in0.0 mm
12:50 AM 32.2°F0.1°C 21.4°F-5.9°C 64% 2.1 mph NW3.4 kmh NW 3.0 mph4.8 kmh 30.01 in1016.3 mb 0.00 in0.0 mm 0.00 in/hr0.0 mm/hr 0.00 in0.0 mm
01:00 AM 32.2°F0.1°C 21.3°F-5.9°C 64% 0.1 mph N0.2 kmh N 1.0 mph1.6 kmh 30.01 in1016.3 mb 0.00 in0.0 mm 0.00 in/hr0.0 mm/hr 0.00 in0.0 mm
01:10 AM 32.0°F0.0°C 21.2°F-6.0°C 64% 2.6 mph NNW4.2 kmh NNW 3.0 mph4.8 kmh 30.01 in1016.3 mb 0.00 in0.0 mm 0.00 in/hr0.0 mm/hr 0.00 in0.0 mm
01:20 AM 31.8°F-0.1°C 21.4°F-5.9°C 65% 1.7 mph W2.7 kmh W 3.0 mph4.8 kmh 30.01 in1016.3 mb 0.00 in0.0 mm 0.00 in/hr0.0 mm/hr 0.00 in0.0 mm
01:30 AM 31.7°F-0.2°C 21.3°F-5.9°C 65% 1.4 mph NW2.3 kmh NW 2.0 mph3.2 kmh 30.02 in1016.6 mb 0.00 in0.0 mm 0.00 in/hr0.0 mm/hr 0.00 in0.0 mm
01:40 AM 31.6°F-0.2°C 21.5°F-5.8°C 66% 1.3 mph WNW2.1 kmh WNW 2.0 mph3.2 kmh 30.03 in1016.9 mb 0.00 in0.0 mm 0.00 in/hr0.0 mm/hr 0.00 in0.0 mm
01:50 AM 31.4°F-0.3°C 21.3°F-5.9°C 66% 0.6 mph WNW1.0 kmh WNW 1.0 mph1.6 kmh 30.03 in1016.9 mb 0.00 in0.0 mm 0.00 in/hr0.0 mm/hr 0.00 in0.0 mm
02:00 AM 31.4°F-0.3°C 21.4°F-5.9°C 66% 2.4 mph NW3.9 kmh NW 5.0 mph8.0 kmh 30.03 in1016.9 mb 0.00 in0.0 mm 0.00 in/hr0.0 mm/hr 0.00 in0.0 mm
02:10 AM 31.6°F-0.2°C 21.5°F-5.8°C 66% 1.4 mph NW2.3 kmh NW 4.0 mph6.4 kmh 30.03 in1016.9 mb 0.00 in0.0 mm 0.00 in/hr0.0 mm/hr 0.00 in0.0 mm
02:20 AM 31.7°F-0.2°C 21.6°F-5.8°C 66% 1.3 mph NNE2.1 kmh NNE 3.0 mph4.8 kmh 30.03 in1016.9 mb 0.00 in0.0 mm 0.00 in/hr0.0 mm/hr 0.00 in0.0 mm
02:30 AM 31.6°F-0.2°C 21.2°F-6.0°C 65% 4.9 mph N7.9 kmh N 5.0 mph8.0 kmh 30.03 in1016.9 mb 0.00 in0.0 mm 0.00 in/hr0.0 mm/hr 0.00 in0.0 mm
02:40 AM 31.6°F-0.2°C 21.5°F-5.8°C 66% 0.6 mph NNE1.0 kmh NNE 1.0 mph1.6 kmh 30.03 in1016.9 mb 0.00 in0.0 mm 0.00 in/hr0.0 mm/hr 0.00 in0.0 mm
02:50 AM 31.6°F-0.2°C 21.2°F-6.0°C 65% 1.8 mph NW2.9 kmh NW 5.0 mph8.0 kmh 30.03 in1016.9 mb 0.00 in0.0 mm 0.00 in/hr0.0 mm/hr 0.00 in0.0 mm
03:00 AM 31.4°F-0.3°C 21.4°F-5.9°C 66% 1.5 mph W2.4 kmh W 4.0 mph6.4 kmh 30.03 in1016.9 mb 0.00 in0.0 mm 0.00 in/hr0.0 mm/hr 0.00 in0.0 mm
03:10 AM 31.3°F-0.4°C 21.3°F-5.9°C 66% 1.5 mph WNW2.4 kmh WNW 3.0 mph4.8 kmh 30.03 in1016.9 mb 0.00 in0.0 mm 0.00 in/hr0.0 mm/hr 0.00 in0.0 mm
03:20 AM 31.3°F-0.4°C 21.3°F-5.9°C 66% 3.3 mph NW5.3 kmh NW 6.0 mph9.7 kmh 30.03 in1016.9 mb 0.00 in0.0 mm 0.00 in/hr0.0 mm/hr 0.00 in0.0 mm
03:30 AM 31.3°F-0.4°C 20.9°F-6.2°C 65% 2.7 mph NW4.3 kmh NW 11.0 mph17.7 kmh 30.04 in1017.3 mb 0.00 in0.0 mm 0.00 in/hr0.0 mm/hr 0.00 in0.0 mm
03:40 AM 31.2°F-0.4°C 20.8°F-6.2°C 65% 2.5 mph N4.0 kmh N 7.0 mph11.3 kmh 30.03 in1016.9 mb 0.00 in0.0 mm 0.00 in/hr0.0 mm/hr 0.00 in0.0 mm
03:50 AM 31.0°F-0.6°C 21.0°F-6.1°C 66% 1.6 mph WNW2.6 kmh WNW 3.0 mph4.8 kmh 30.03 in1016.9 mb 0.00 in0.0 mm 0.00 in/hr0.0 mm/hr 0.00 in0.0 mm
04:00 AM 30.9°F-0.6°C 20.9°F-6.2°C 66% 1.9 mph WNW3.1 kmh WNW 5.0 mph8.0 kmh 30.04 in1017.3 mb 0.00 in0.0 mm 0.00 in/hr0.0 mm/hr 0.00 in0.0 mm
04:10 AM 30.8°F-0.7°C 20.4°F-6.4°C 65% 3.6 mph W5.8 kmh W 5.0 mph8.0 kmh 30.04 in1017.3 mb 0.00 in0.0 mm 0.00 in/hr0.0 mm/hr 0.00 in0.0 mm
04:20 AM 30.7°F-0.7°C 20.3°F-6.5°C 65% 6.9 mph N11.1 kmh N 10.0 mph16.1 kmh 30.04 in1017.3 mb 0.00 in0.0 mm 0.00 in/hr0.0 mm/hr 0.00 in0.0 mm
04:30 AM 30.5°F-0.8°C 20.1°F-6.6°C 65% 3.0 mph N4.8 kmh N 8.0 mph12.9 kmh 30.04 in1017.3 mb 0.00 in0.0 mm 0.00 in/hr0.0 mm/hr 0.00 in0.0 mm
04:40 AM 30.3°F-0.9°C 20.3°F-6.5°C 66% 3.3 mph E5.3 kmh E 5.0 mph8.0 kmh 30.04 in1017.3 mb 0.00 in0.0 mm 0.00 in/hr0.0 mm/hr 0.00 in0.0 mm
04:50 AM 30.2°F-1.0°C 20.2°F-6.6°C 66% 3.5 mph NNE5.6 kmh NNE 5.0 mph8.0 kmh 30.04 in1017.3 mb 0.00 in0.0 mm 0.00 in/hr0.0 mm/hr 0.00 in0.0 mm
05:00 AM 30.0°F-1.1°C 20.0°F-6.7°C 66% 0.7 mph N1.1 kmh N 4.0 mph6.4 kmh 30.04 in1017.3 mb 0.00 in0.0 mm 0.00 in/hr0.0 mm/hr 0.00 in0.0 mm
05:10 AM 29.9°F-1.2°C 19.9°F-6.7°C 66% 3.5 mph NNE5.6 kmh NNE 9.0 mph14.5 kmh 30.05 in1017.6 mb 0.00 in0.0 mm 0.00 in/hr0.0 mm/hr 0.00 in0.0 mm
05:20 AM 29.8°F-1.2°C 19.4°F-7.0°C 65% 2.5 mph ENE4.0 kmh ENE 6.0 mph9.7 kmh 30.05 in1017.6 mb 0.00 in0.0 mm 0.00 in/hr0.0 mm/hr 0.00 in0.0 mm
05:30 AM 29.6°F-1.3°C 19.6°F-6.9°C 66% 4.1 mph NW6.6 kmh NW 8.0 mph12.9 kmh 30.05 in1017.6 mb 0.00 in0.0 mm 0.00 in/hr0.0 mm/hr 0.00 in0.0 mm
05:40 AM 29.5°F-1.4°C 19.2°F-7.1°C 65% 1.6 mph NW2.6 kmh NW 4.0 mph6.4 kmh 30.06 in1017.9 mb 0.00 in0.0 mm 0.00 in/hr0.0 mm/hr 0.00 in0.0 mm
05:50 AM 29.3°F-1.5°C 19.0°F-7.2°C 65% 2.1 mph NW3.4 kmh NW 7.0 mph11.3 kmh 30.06 in1017.9 mb 0.00 in0.0 mm 0.00 in/hr0.0 mm/hr 0.00 in0.0 mm
06:00 AM 29.3°F-1.5°C 19.0°F-7.2°C 65% 3.0 mph NW4.8 kmh NW 8.0 mph12.9 kmh 30.07 in1018.3 mb 0.00 in0.0 mm 0.00 in/hr0.0 mm/hr 0.00 in0.0 mm
06:10 AM 29.3°F-1.5°C 19.0°F-7.2°C 65% 3.0 mph NW4.8 kmh NW 6.0 mph9.7 kmh 30.07 in1018.3 mb 0.00 in0.0 mm 0.00 in/hr0.0 mm/hr 0.00 in0.0 mm
06:20 AM 29.4°F-1.4°C 18.7°F-7.4°C 64% 3.7 mph N6.0 kmh N 6.0 mph9.7 kmh 30.08 in1018.6 mb 0.00 in0.0 mm 0.00 in/hr0.0 mm/hr 0.00 in0.0 mm
06:30 AM 29.3°F-1.5°C 18.6°F-7.4°C 64% 5.0 mph NW8.0 kmh NW 8.0 mph12.9 kmh 30.08 in1018.6 mb 0.00 in0.0 mm 0.00 in/hr0.0 mm/hr 0.00 in0.0 mm
06:40 AM 29.2°F-1.6°C 18.9°F-7.3°C 65% 5.1 mph NW8.2 kmh NW 10.0 mph16.1 kmh 30.09 in1019.0 mb 0.00 in0.0 mm 0.00 in/hr0.0 mm/hr 0.00 in0.0 mm
06:50 AM 29.2°F-1.6°C 18.9°F-7.3°C 65% 2.3 mph W3.7 kmh W 6.0 mph9.7 kmh 30.09 in1019.0 mb 0.00 in0.0 mm 0.00 in/hr0.0 mm/hr 0.00 in0.0 mm
07:00 AM 29.1°F-1.6°C 18.8°F-7.3°C 65% 2.3 mph NW3.7 kmh NW 12.0 mph19.3 kmh 30.10 in1019.3 mb 0.00 in0.0 mm 0.00 in/hr0.0 mm/hr 0.00 in0.0 mm
07:10 AM 29.1°F-1.6°C 18.8°F-7.3°C 65% 4.6 mph W7.4 kmh W 9.0 mph14.5 kmh 30.10 in1019.3 mb 0.00 in0.0 mm 0.00 in/hr0.0 mm/hr 0.00 in0.0 mm
07:20 AM 29.2°F-1.6°C 18.9°F-7.3°C 65% 1.1 mph N1.8 kmh N 4.0 mph6.4 kmh 30.11 in1019.6 mb 0.00 in0.0 mm 0.00 in/hr0.0 mm/hr 0.00 in0.0 mm
07:30 AM 29.3°F-1.5°C 18.6°F-7.4°C 64% 5.2 mph NNW8.4 kmh NNW 8.0 mph12.9 kmh 30.12 in1020.0 mb 0.00 in0.0 mm 0.00 in/hr0.0 mm/hr 0.00 in0.0 mm
07:40 AM 29.4°F-1.4°C 18.7°F-7.4°C 64% 5.9 mph WNW9.5 kmh WNW 5.0 mph8.0 kmh 30.12 in1020.0 mb 0.00 in0.0 mm 0.00 in/hr0.0 mm/hr 0.00 in0.0 mm
07:50 AM 29.5°F-1.4°C 19.2°F-7.1°C 65% 2.9 mph NW4.7 kmh NW 6.0 mph9.7 kmh 30.12 in1020.0 mb 0.00 in0.0 mm 0.00 in/hr0.0 mm/hr 0.00 in0.0 mm
08:00 AM 29.5°F-1.4°C 18.8°F-7.3°C 64% 4.5 mph NW7.2 kmh NW 7.0 mph11.3 kmh 30.12 in1020.0 mb 0.00 in0.0 mm 0.00 in/hr0.0 mm/hr 0.00 in0.0 mm
08:10 AM 29.6°F-1.3°C 18.9°F-7.3°C 64% 4.8 mph W7.7 kmh W 8.0 mph12.9 kmh 30.13 in1020.3 mb 0.00 in0.0 mm 0.00 in/hr0.0 mm/hr 0.00 in0.0 mm
08:20 AM 29.8°F-1.2°C 18.7°F-7.4°C 63% 3.2 mph NNW5.1 kmh NNW 9.0 mph14.5 kmh 30.13 in1020.3 mb 0.00 in0.0 mm 0.00 in/hr0.0 mm/hr 0.00 in0.0 mm
08:30 AM 29.9°F-1.2°C 18.5°F-7.5°C 62% 5.0 mph NW8.0 kmh NW 6.0 mph9.7 kmh 30.14 in1020.7 mb 0.00 in0.0 mm 0.00 in/hr0.0 mm/hr 0.00 in0.0 mm
08:40 AM 30.2°F-1.0°C 18.8°F-7.3°C 62% 3.4 mph WNW5.5 kmh WNW 7.0 mph11.3 kmh 30.14 in1020.7 mb 0.00 in0.0 mm 0.00 in/hr0.0 mm/hr 0.00 in0.0 mm
08:50 AM 30.6°F-0.8°C 19.1°F-7.2°C 62% 3.6 mph N5.8 kmh N 9.0 mph14.5 kmh 30.14 in1020.7 mb 0.00 in0.0 mm 0.00 in/hr0.0 mm/hr 0.00 in0.0 mm
09:00 AM 30.9°F-0.6°C 19.1°F-7.2°C 61% 3.0 mph NW4.8 kmh NW 8.0 mph12.9 kmh 30.14 in1020.7 mb 0.00 in0.0 mm 0.00 in/hr0.0 mm/hr 0.00 in0.0 mm
09:10 AM 31.2°F-0.4°C 19.3°F-7.1°C 61% 2.8 mph WNW4.5 kmh WNW 4.0 mph6.4 kmh 30.14 in1020.7 mb 0.00 in0.0 mm 0.00 in/hr0.0 mm/hr 0.00 in0.0 mm
09:20 AM 31.2°F-0.4°C 19.7°F-6.8°C 62% 1.7 mph NNW2.7 kmh NNW 5.0 mph8.0 kmh 30.14 in1020.7 mb 0.00 in0.0 mm 0.00 in/hr0.0 mm/hr 0.00 in0.0 mm
09:30 AM 31.3°F-0.4°C 19.4°F-7.0°C 61% 4.7 mph WNW7.6 kmh WNW 9.0 mph14.5 kmh 30.15 in1021.0 mb 0.00 in0.0 mm 0.00 in/hr0.0 mm/hr 0.00 in0.0 mm
09:40 AM 31.7°F-0.2°C 20.2°F-6.6°C 62% 1.7 mph NE2.7 kmh NE 7.0 mph11.3 kmh 30.15 in1021.0 mb 0.00 in0.0 mm 0.00 in/hr0.0 mm/hr 0.00 in0.0 mm
09:50 AM 32.1°F0.1°C 20.2°F-6.6°C 61% 3.6 mph W5.8 kmh W 7.0 mph11.3 kmh 30.15 in1021.0 mb 0.00 in0.0 mm 0.00 in/hr0.0 mm/hr 0.00 in0.0 mm
10:00 AM 32.7°F0.4°C 20.3°F-6.5°C 60% 3.6 mph E5.8 kmh E 8.0 mph12.9 kmh 30.16 in1021.3 mb 0.00 in0.0 mm 0.00 in/hr0.0 mm/hr 0.00 in0.0 mm
10:10 AM 33.2°F0.7°C 20.0°F-6.7°C 58% 3.9 mph NW6.3 kmh NW 10.0 mph16.1 kmh 30.16 in1021.3 mb 0.00 in0.0 mm 0.00 in/hr0.0 mm/hr 0.00 in0.0 mm
10:20 AM 33.6°F0.9°C 19.6°F-6.9°C 56% 3.9 mph WNW6.3 kmh WNW 9.0 mph14.5 kmh 30.16 in1021.3 mb 0.00 in0.0 mm 0.00 in/hr0.0 mm/hr 0.00 in0.0 mm
10:30 AM 33.9°F1.1°C 19.4°F-7.0°C 55% 3.7 mph N6.0 kmh N 9.0 mph14.5 kmh 30.16 in1021.3 mb 0.00 in0.0 mm 0.00 in/hr0.0 mm/hr 0.00 in0.0 mm
10:40 AM 33.9°F1.1°C 19.4°F-7.0°C 55% 5.2 mph N8.4 kmh N 10.0 mph16.1 kmh 30.17 in1021.7 mb 0.00 in0.0 mm 0.00 in/hr0.0 mm/hr 0.00 in0.0 mm
10:50 AM 34.1°F1.2°C 19.2°F-7.1°C 54% 2.4 mph NW3.9 kmh NW 8.0 mph12.9 kmh 30.18 in1022.0 mb 0.00 in0.0 mm 0.00 in/hr0.0 mm/hr 0.00 in0.0 mm
11:00 AM 34.9°F1.6°C 19.5°F-6.9°C 53% 4.4 mph NW7.1 kmh NW 7.0 mph11.3 kmh 30.18 in1022.0 mb 0.00 in0.0 mm 0.00 in/hr0.0 mm/hr 0.00 in0.0 mm
11:10 AM 35.6°F2.0°C 18.8°F-7.3°C 50% 5.0 mph W8.0 kmh W 9.0 mph14.5 kmh 30.18 in1022.0 mb 0.00 in0.0 mm 0.00 in/hr0.0 mm/hr 0.00 in0.0 mm
11:20 AM 35.5°F1.9°C 19.2°F-7.1°C 51% 3.8 mph WNW6.1 kmh WNW 5.0 mph8.0 kmh 30.18 in1022.0 mb 0.00 in0.0 mm 0.00 in/hr0.0 mm/hr 0.00 in0.0 mm
11:30 AM 36.8°F2.7°C 19.4°F-7.0°C 49% 4.9 mph NW7.9 kmh NW 7.0 mph11.3 kmh 30.18 in1022.0 mb 0.00 in0.0 mm 0.00 in/hr0.0 mm/hr 0.00 in0.0 mm
11:40 AM 36.7°F2.6°C 19.3°F-7.1°C 49% 7.0 mph NW11.3 kmh NW 11.0 mph17.7 kmh 30.18 in1022.0 mb 0.00 in0.0 mm 0.00 in/hr0.0 mm/hr 0.00 in0.0 mm
11:50 AM 37.3°F2.9°C 19.4°F-7.0°C 48% 5.8 mph NNW9.3 kmh NNW 10.0 mph16.1 kmh 30.18 in1022.0 mb 0.00 in0.0 mm 0.00 in/hr0.0 mm/hr 0.00 in0.0 mm
12:00 PM 38.2°F3.4°C 18.7°F-7.4°C 45% 4.4 mph WNW7.1 kmh WNW 9.0 mph14.5 kmh 30.18 in1022.0 mb 0.00 in0.0 mm 0.00 in/hr0.0 mm/hr 0.00 in0.0 mm
12:10 PM 38.4°F3.6°C 18.4°F-7.6°C 44% 5.0 mph NE8.0 kmh NE 10.0 mph16.1 kmh 30.18 in1022.0 mb 0.00 in0.0 mm 0.00 in/hr0.0 mm/hr 0.00 in0.0 mm
12:20 PM 38.7°F3.7°C 18.7°F-7.4°C 44% 3.9 mph NE6.3 kmh NE 6.0 mph9.7 kmh 30.18 in1022.0 mb 0.00 in0.0 mm 0.00 in/hr0.0 mm/hr 0.00 in0.0 mm
12:30 PM 39.1°F3.9°C 19.0°F-7.2°C 44% 5.4 mph SW8.7 kmh SW 10.0 mph16.1 kmh 30.18 in1022.0 mb 0.00 in0.0 mm 0.00 in/hr0.0 mm/hr 0.00 in0.0 mm
12:40 PM 39.8°F4.3°C 19.1°F-7.2°C 43% 5.1 mph NNW8.2 kmh NNW 6.0 mph9.7 kmh 30.18 in1022.0 mb 0.00 in0.0 mm 0.00 in/hr0.0 mm/hr 0.00 in0.0 mm
12:50 PM 40.4°F4.7°C 17.9°F-7.8°C 40% 5.5 mph NE8.9 kmh NE 8.0 mph12.9 kmh 30.18 in1022.0 mb 0.00 in0.0 mm 0.00 in/hr0.0 mm/hr 0.00 in0.0 mm
01:00 PM 40.6°F4.8°C 17.6°F-8.0°C 39% 6.2 mph NW10.0 kmh NW 10.0 mph16.1 kmh 30.18 in1022.0 mb 0.00 in0.0 mm 0.00 in/hr0.0 mm/hr 0.00 in0.0 mm
01:10 PM 40.9°F4.9°C 17.8°F-7.9°C 39% 3.7 mph NW6.0 kmh NW 6.0 mph9.7 kmh 30.18 in1022.0 mb 0.00 in0.0 mm 0.00 in/hr0.0 mm/hr 0.00 in0.0 mm
01:20 PM 41.2°F5.1°C 17.5°F-8.1°C 38% 5.9 mph NW9.5 kmh NW 9.0 mph14.5 kmh 30.18 in1022.0 mb 0.00 in0.0 mm 0.00 in/hr0.0 mm/hr 0.00 in0.0 mm
01:30 PM 41.5°F5.3°C 17.2°F-8.2°C 37% 4.3 mph ENE6.9 kmh ENE 7.0 mph11.3 kmh 30.18 in1022.0 mb 0.00 in0.0 mm 0.00 in/hr0.0 mm/hr 0.00 in0.0 mm
01:40 PM 42.2°F5.7°C 16.4°F-8.7°C 35% 5.7 mph W9.2 kmh W 14.0 mph22.5 kmh 30.18 in1022.0 mb 0.00 in0.0 mm 0.00 in/hr0.0 mm/hr 0.00 in0.0 mm
01:50 PM 42.3°F5.7°C 15.2°F-9.3°C 33% 5.7 mph NNE9.2 kmh NNE 8.0 mph12.9 kmh 30.17 in1021.7 mb 0.00 in0.0 mm 0.00 in/hr0.0 mm/hr 0.00 in0.0 mm
02:00 PM 42.5°F5.8°C 14.7°F-9.6°C 32% 4.9 mph WNW7.9 kmh WNW 12.0 mph19.3 kmh 30.17 in1021.7 mb 0.00 in0.0 mm 0.00 in/hr0.0 mm/hr 0.00 in0.0 mm
02:10 PM 43.1°F6.2°C 15.2°F-9.3°C 32% 3.4 mph NW5.5 kmh NW 6.0 mph9.7 kmh 30.18 in1022.0 mb 0.00 in0.0 mm 0.00 in/hr0.0 mm/hr 0.00 in0.0 mm
02:20 PM 43.5°F6.4°C 16.2°F-8.8°C 33% 3.7 mph N6.0 kmh N 8.0 mph12.9 kmh 30.18 in1022.0 mb 0.00 in0.0 mm 0.00 in/hr0.0 mm/hr 0.00 in0.0 mm
02:30 PM 43.9°F6.6°C 15.9°F-8.9°C 32% 4.7 mph NW7.6 kmh NW 10.0 mph16.1 kmh 30.17 in1021.7 mb 0.00 in0.0 mm 0.00 in/hr0.0 mm/hr 0.00 in0.0 mm
02:40 PM 43.5°F6.4°C 16.3°F-8.7°C 33% 6.1 mph NW9.8 kmh NW 10.0 mph16.1 kmh 30.18 in1022.0 mb 0.00 in0.0 mm 0.00 in/hr0.0 mm/hr 0.00 in0.0 mm
02:50 PM 43.5°F6.4°C 17.0°F-8.3°C 34% 6.8 mph WNW10.9 kmh WNW 16.0 mph25.7 kmh 30.18 in1022.0 mb 0.00 in0.0 mm 0.00 in/hr0.0 mm/hr 0.00 in0.0 mm
03:00 PM 43.3°F6.3°C 16.8°F-8.4°C 34% 2.6 mph WNW4.2 kmh WNW 12.0 mph19.3 kmh 30.18 in1022.0 mb 0.00 in0.0 mm 0.00 in/hr0.0 mm/hr 0.00 in0.0 mm
03:10 PM 43.2°F6.2°C 16.0°F-8.9°C 33% 5.7 mph NE9.2 kmh NE 11.0 mph17.7 kmh 30.19 in1022.4 mb 0.00 in0.0 mm 0.00 in/hr0.0 mm/hr 0.00 in0.0 mm
03:20 PM 43.3°F6.3°C 16.8°F-8.4°C 34% 4.4 mph N7.1 kmh N 7.0 mph11.3 kmh 30.19 in1022.4 mb 0.00 in0.0 mm 0.00 in/hr0.0 mm/hr 0.00 in0.0 mm
03:30 PM 43.3°F6.3°C 16.0°F-8.9°C 33% 7.2 mph NW11.6 kmh NW 13.0 mph20.9 kmh 30.19 in1022.4 mb 0.00 in0.0 mm 0.00 in/hr0.0 mm/hr 0.00 in0.0 mm
03:40 PM 43.5°F6.4°C 16.3°F-8.7°C 33% 5.3 mph WNW8.5 kmh WNW 7.0 mph11.3 kmh 30.20 in1022.7 mb 0.00 in0.0 mm 0.00 in/hr0.0 mm/hr 0.00 in0.0 mm
03:50 PM 43.3°F6.3°C 16.1°F-8.8°C 33% 6.2 mph NW10.0 kmh NW 12.0 mph19.3 kmh 30.20 in1022.7 mb 0.00 in0.0 mm 0.00 in/hr0.0 mm/hr 0.00 in0.0 mm
04:00 PM 43.1°F6.2°C 15.9°F-8.9°C 33% 4.7 mph NNW7.6 kmh NNW 8.0 mph12.9 kmh 30.20 in1022.7 mb 0.00 in0.0 mm 0.00 in/hr0.0 mm/hr 0.00 in0.0 mm
04:10 PM 43.2°F6.2°C 15.3°F-9.3°C 32% 5.8 mph NE9.3 kmh NE 10.0 mph16.1 kmh 30.21 in1023.0 mb 0.00 in0.0 mm 0.00 in/hr0.0 mm/hr 0.00 in0.0 mm
04:20 PM 42.9°F6.1°C 13.5°F-10.3°C 30% 4.2 mph N6.8 kmh N 7.0 mph11.3 kmh 30.21 in1023.0 mb 0.00 in0.0 mm 0.00 in/hr0.0 mm/hr 0.00 in0.0 mm
04:30 PM 42.7°F5.9°C 14.1°F-9.9°C 31% 3.8 mph NNE6.1 kmh NNE 7.0 mph11.3 kmh 30.21 in1023.0 mb 0.00 in0.0 mm 0.00 in/hr0.0 mm/hr 0.00 in0.0 mm
04:40 PM 42.4°F5.8°C 14.6°F-9.7°C 32% 3.0 mph NW4.8 kmh NW 6.0 mph9.7 kmh 30.21 in1023.0 mb 0.00 in0.0 mm 0.00 in/hr0.0 mm/hr 0.00 in0.0 mm
04:50 PM 42.4°F5.8°C 15.3°F-9.3°C 33% 2.2 mph ENE3.5 kmh ENE 4.0 mph6.4 kmh 30.21 in1023.0 mb 0.00 in0.0 mm 0.00 in/hr0.0 mm/hr 0.00 in0.0 mm
05:00 PM 41.8°F5.4°C 14.0°F-10.0°C 32% 4.0 mph NW6.4 kmh NW 6.0 mph9.7 kmh 30.22 in1023.4 mb 0.00 in0.0 mm 0.00 in/hr0.0 mm/hr 0.00 in0.0 mm
05:10 PM 41.1°F5.1°C 14.9°F-9.5°C 34% 2.6 mph NW4.2 kmh NW 4.0 mph6.4 kmh 30.22 in1023.4 mb 0.00 in0.0 mm 0.00 in/hr0.0 mm/hr 0.00 in0.0 mm
05:20 PM 40.3°F4.6°C 14.8°F-9.6°C 35% 0.6 mph NNE1.0 kmh NNE 4.0 mph6.4 kmh 30.23 in1023.7 mb 0.00 in0.0 mm 0.00 in/hr0.0 mm/hr 0.00 in0.0 mm
05:30 PM 39.3°F4.1°C 14.6°F-9.7°C 36% 2.4 mph WNW3.9 kmh WNW 4.0 mph6.4 kmh 30.23 in1023.7 mb 0.00 in0.0 mm 0.00 in/hr0.0 mm/hr 0.00 in0.0 mm
05:40 PM 38.7°F3.7°C 14.6°F-9.7°C 37% 0.5 mph NW0.8 kmh NW 2.0 mph3.2 kmh 30.24 in1024.0 mb 0.00 in0.0 mm 0.00 in/hr0.0 mm/hr 0.00 in0.0 mm
05:50 PM 38.0°F3.3°C 14.6°F-9.7°C 38% Calm Calm -- 30.25 in1024.4 mb 0.00 in0.0 mm 0.00 in/hr0.0 mm/hr 0.00 in0.0 mm
06:00 PM 37.3°F2.9°C 15.2°F-9.3°C 40% Calm Calm -- 30.26 in1024.7 mb 0.00 in0.0 mm 0.00 in/hr0.0 mm/hr 0.00 in0.0 mm
06:10 PM 36.5°F2.5°C 15.0°F-9.4°C 41% 0.9 mph NW1.4 kmh NW 4.0 mph6.4 kmh 30.26 in1024.7 mb 0.00 in0.0 mm 0.00 in/hr0.0 mm/hr 0.00 in0.0 mm
06:20 PM 36.2°F2.3°C 15.8°F-9.0°C 43% 0.1 mph NW0.2 kmh NW 3.0 mph4.8 kmh 30.27 in1025.1 mb 0.00 in0.0 mm 0.00 in/hr0.0 mm/hr 0.00 in0.0 mm
06:30 PM 36.3°F2.4°C 15.4°F-9.2°C 42% 2.3 mph NNW3.7 kmh NNW 2.0 mph3.2 kmh 30.27 in1025.1 mb 0.00 in0.0 mm 0.00 in/hr0.0 mm/hr 0.00 in0.0 mm
06:40 PM 36.3°F2.4°C 15.4°F-9.2°C 42% Calm Calm 1.0 mph1.6 kmh 30.27 in1025.1 mb 0.00 in0.0 mm 0.00 in/hr0.0 mm/hr 0.00 in0.0 mm
06:50 PM 35.7°F2.1°C 14.8°F-9.6°C 42% 1.5 mph NW2.4 kmh NW 3.0 mph4.8 kmh 30.28 in1025.4 mb 0.00 in0.0 mm 0.00 in/hr0.0 mm/hr 0.00 in0.0 mm
07:00 PM 35.4°F1.9°C 15.1°F-9.4°C 43% 0.4 mph N0.6 kmh N 1.0 mph1.6 kmh 30.28 in1025.4 mb 0.00 in0.0 mm 0.00 in/hr0.0 mm/hr 0.00 in0.0 mm
07:10 PM 34.7°F1.5°C 15.5°F-9.2°C 45% 0.6 mph N1.0 kmh N 2.0 mph3.2 kmh 30.28 in1025.4 mb 0.00 in0.0 mm 0.00 in/hr0.0 mm/hr 0.00 in0.0 mm
07:20 PM 34.1°F1.2°C 15.4°F-9.2°C 46% Calm Calm -- 30.28 in1025.4 mb 0.00 in0.0 mm 0.00 in/hr0.0 mm/hr 0.00 in0.0 mm
07:30 PM 33.3°F0.7°C 15.3°F-9.3°C 47% Calm Calm -- 30.28 in1025.4 mb 0.00 in0.0 mm 0.00 in/hr0.0 mm/hr 0.00 in0.0 mm
07:40 PM 33.3°F0.7°C 15.2°F-9.3°C 47% Calm Calm -- 30.28 in1025.4 mb 0.00 in0.0 mm 0.00 in/hr0.0 mm/hr 0.00 in0.0 mm
07:50 PM 32.4°F0.2°C 17.6°F-8.0°C 54% Calm Calm -- 30.29 in1025.7 mb 0.00 in0.0 mm 0.00 in/hr0.0 mm/hr 0.00 in0.0 mm
08:00 PM 32.7°F0.4°C 15.1°F-9.4°C 48% Calm Calm -- 30.30 in1026.1 mb 0.00 in0.0 mm 0.00 in/hr0.0 mm/hr 0.00 in0.0 mm
08:10 PM 32.5°F0.3°C 15.5°F-9.2°C 49% Calm Calm -- 30.31 in1026.4 mb 0.00 in0.0 mm 0.00 in/hr0.0 mm/hr 0.00 in0.0 mm
08:20 PM 31.7°F-0.2°C 14.7°F-9.6°C 49% Calm Calm -- 30.32 in1026.8 mb 0.00 in0.0 mm 0.00 in/hr0.0 mm/hr 0.00 in0.0 mm
08:30 PM 30.8°F-0.7°C 15.2°F-9.3°C 52% Calm Calm -- 30.33 in1027.1 mb 0.00 in0.0 mm 0.00 in/hr0.0 mm/hr 0.00 in0.0 mm
08:40 PM 29.6°F-1.3°C 15.4°F-9.2°C 55% Calm Calm -- 30.33 in1027.1 mb 0.00 in0.0 mm 0.00 in/hr0.0 mm/hr 0.00 in0.0 mm
08:50 PM 30.1°F-1.1°C 15.9°F-8.9°C 55% Calm Calm -- 30.33 in1027.1 mb 0.00 in0.0 mm 0.00 in/hr0.0 mm/hr 0.00 in0.0 mm
09:00 PM 31.1°F-0.5°C 15.5°F-9.2°C 52% Calm Calm -- 30.33 in1027.1 mb 0.00 in0.0 mm 0.00 in/hr0.0 mm/hr 0.00 in0.0 mm
09:10 PM 31.4°F-0.3°C 15.8°F-9.0°C 52% Calm Calm -- 30.33 in1027.1 mb 0.00 in0.0 mm 0.00 in/hr0.0 mm/hr 0.00 in0.0 mm
09:20 PM 31.8°F-0.1°C 16.1°F-8.8°C 52% Calm Calm -- 30.33 in1027.1 mb 0.00 in0.0 mm 0.00 in/hr0.0 mm/hr 0.00 in0.0 mm
09:30 PM 31.7°F-0.2°C 15.6°F-9.1°C 51% Calm Calm -- 30.32 in1026.8 mb 0.00 in0.0 mm 0.00 in/hr0.0 mm/hr 0.00 in0.0 mm
09:40 PM 30.2°F-1.0°C 16.8°F-8.4°C 57% Calm Calm -- 30.33 in1027.1 mb 0.00 in0.0 mm 0.00 in/hr0.0 mm/hr 0.00 in0.0 mm
09:50 PM 30.8°F-0.7°C 16.9°F-8.4°C 56% Calm Calm -- 30.34 in1027.4 mb 0.00 in0.0 mm 0.00 in/hr0.0 mm/hr 0.00 in0.0 mm
10:00 PM 32.1°F0.1°C 15.5°F-9.2°C 50% Calm Calm -- 30.34 in1027.4 mb 0.00 in0.0 mm 0.00 in/hr0.0 mm/hr 0.00 in0.0 mm
10:10 PM 30.6°F-0.8°C 16.4°F-8.7°C 55% Calm Calm -- 30.34 in1027.4 mb 0.00 in0.0 mm 0.00 in/hr0.0 mm/hr 0.00 in0.0 mm
10:20 PM 31.2°F-0.4°C 16.0°F-8.9°C 53% Calm Calm -- 30.34 in1027.4 mb 0.00 in0.0 mm 0.00 in/hr0.0 mm/hr 0.00 in0.0 mm
10:30 PM 30.7°F-0.7°C 16.4°F-8.7°C 55% Calm Calm -- 30.34 in1027.4 mb 0.00 in0.0 mm 0.00 in/hr0.0 mm/hr 0.00 in0.0 mm
10:40 PM 30.7°F-0.7°C 16.5°F-8.6°C 55% Calm Calm -- 30.35 in1027.8 mb 0.00 in0.0 mm 0.00 in/hr0.0 mm/hr 0.00 in0.0 mm
10:50 PM 29.2°F-1.6°C 17.8°F-7.9°C 62% Calm Calm -- 30.35 in1027.8 mb 0.00 in0.0 mm 0.00 in/hr0.0 mm/hr 0.00 in0.0 mm
11:00 PM 29.3°F-1.5°C 16.7°F-8.5°C 59% Calm Calm -- 30.35 in1027.8 mb 0.00 in0.0 mm 0.00 in/hr0.0 mm/hr 0.00 in0.0 mm
11:10 PM 30.7°F-0.7°C 17.2°F-8.2°C 57% Calm Calm -- 30.35 in1027.8 mb 0.00 in0.0 mm 0.00 in/hr0.0 mm/hr 0.00 in0.0 mm
11:20 PM 29.1°F-1.6°C 17.4°F-8.1°C 61% Calm Calm -- 30.35 in1027.8 mb 0.00 in0.0 mm 0.00 in/hr0.0 mm/hr 0.00 in0.0 mm
11:30 PM 30.3°F-0.9°C 19.6°F-6.9°C 64% Calm Calm -- 30.36 in1028.1 mb 0.00 in0.0 mm 0.00 in/hr0.0 mm/hr 0.00 in0.0 mm
11:40 PM 29.7°F-1.3°C 19.0°F-7.2°C 64% Calm Calm -- 30.35 in1027.8 mb 0.00 in0.0 mm 0.00 in/hr0.0 mm/hr 0.00 in0.0 mm
11:50 PM 29.6°F-1.3°C 18.9°F-7.3°C 64% Calm Calm -- 30.35 in1027.8 mb 0.00 in0.0 mm 0.00 in/hr0.0 mm/hr 0.00 in0.0 mm